Sheridan, WY

7:30 PM MDT on April 26, 2017 (GMT -0600)
South Sheridan | | Change Station
Active Advisory: Winter Storm Watch Active Notice: Public Information Statement

Elev 3770 ft 44.79 °N, 106.95 °W | Updated 5 seconds ago

Scattered Clouds
Scattered Clouds
39.7 °F
Feels Like 40 °F
N
1.1
Wind Variable Wind from SE
Gusts 2.5 mph

Today
High -- | Low -- °F
--% Chance of Precip.
Yesterday
High -- | Low -- °F
Precip. -- in
Pressure 29.75 in
Visibility 10.0 miles
Clouds Scattered Clouds 10000 ft
Windchill 40 °F
Dew Point 33 °F
Humidity 78%
Rainfall 0.30 in
Snow Depth Not available.
6:04 AM 8:07 PM
New Moon, 0% visible
METAR KSHR 270053Z AUTO 17003KT 10SM SCT100 02/M01 A2967 RMK AO2 SLP073 T00221011
Pressure 29.75 in
Visibility 10.0 miles
Clouds Scattered Clouds 10000 ft
Windchill 40 °F
Dew Point 33 °F
Humidity 78%
Rainfall 0.30 in
Snow Depth Not available.
6:04 AM 8:07 PM
New Moon, 0% visible
METAR KSHR 270053Z AUTO 17003KT 10SM SCT100 02/M01 A2967 RMK AO2 SLP073 T00221011

Get Your Daily Forecast Email!

Thanks for signing up!

Be on the lookout for a verification email in your inbox.

You'll start receiving severe weather alerts in your inbox..

×

10-Day Weather Forecast

Almanac

Astronomy

Apr. 26, 2017 Rise Set
Actual Time
Civil Twilight
Nautical Twilight
Astronomical Twilight
Moon
Length of Visible Light
Length of Day
Tomorrow will be .
, % of the Moon is Illuminated

Today's Extremes

State Highs State Lows

Community

WunderPhotos

WunderBlog® & News

Nearby

Air Quality

  Air Quality AQ Index Pollutant
Not available.

Snow Depth

Station Depth Elevation

Earthquake Activity

City Distance Mag. Time & Date
Minimum magnitude displayed is 2.5.

Coastal Water Temperatures

Place Temperature

Stations

Nearby Weather Stations

Station Location Temp. Windchill Dew Point Humidity Wind Precip. Elev Updated Type
                   

Watches & Warnings

Winter Storm Watch
Issued: 2:46 PM MDT Apr. 26, 2017 – National Weather Service

... Winter Storm Watch in effect from Thursday morning through
Friday evening...

The National Weather Service in Billings has issued a Winter
Storm Watch... which is in effect from Thursday morning through
Friday evening.

* Impacts... heavy, wet snow could cause difficult travel
conditions due to poor visibility and snow packed roads. This
would include Interstate 90. Power outages are possible.

* Timing... snow is expected to develop Thursday and continue
through Friday afternoon. Heaviest period of snowfall will be
Thursday evening through Friday morning.

* Snow accumulation... 6 to 10 inches for foothills and areas west
of Interstate 90 with 4 to 6 inches for eastern plains
locations.

Precautionary/preparedness actions...

A Winter Storm Watch is issued when severe winter weather is
possible but not imminent. At this time there is a potential for
significant snow. Future driving and walking conditions may
become hazardous so it is important to monitor the latest
forecasts.